createdAt,value
2023-03-06T00:01:08.048Z,23.80
2023-03-06T00:03:35.263Z,23.50
2023-03-06T00:06:02.683Z,23.50
2023-03-06T00:08:30.200Z,23.30
2023-03-06T00:10:57.740Z,22.80
2023-03-06T00:13:26.866Z,22.70
2023-03-06T00:15:54.095Z,22.80
2023-03-06T00:18:21.270Z,22.80
2023-03-06T00:20:48.414Z,22.60
2023-03-06T00:23:15.470Z,22.00
2023-03-06T00:25:44.193Z,22.20
2023-03-06T00:28:12.531Z,22.50
2023-03-06T00:30:39.732Z,22.10
2023-03-06T00:33:06.878Z,21.90
2023-03-06T00:35:34.020Z,22.30
2023-03-06T00:38:01.161Z,22.40
2023-03-06T00:40:28.267Z,22.60
2023-03-06T00:42:55.484Z,22.60
2023-03-06T00:45:23.062Z,23.10
2023-03-06T00:47:50.294Z,23.20
2023-03-06T00:50:17.614Z,23.50
2023-03-06T00:52:44.712Z,23.50
2023-03-06T00:55:12.055Z,23.20
2023-03-06T00:57:39.234Z,23.20
2023-03-06T01:00:07.030Z,22.70
2023-03-06T01:02:34.240Z,22.50
2023-03-06T01:05:01.443Z,22.60
2023-03-06T01:07:28.702Z,23.30
2023-03-06T01:09:55.850Z,23.90
2023-03-06T01:12:23.648Z,24.30
2023-03-06T01:14:51.004Z,24.20
2023-03-06T01:17:18.203Z,23.60
2023-03-06T01:19:45.260Z,24.10
2023-03-06T01:22:12.348Z,24.40
2023-03-06T01:24:39.409Z,23.90
2023-03-06T01:27:06.500Z,23.90
2023-03-06T01:29:33.610Z,24.30
2023-03-06T01:32:00.766Z,23.80
2023-03-06T01:34:28.014Z,23.30
2023-03-06T01:36:55.127Z,23.20
2023-03-06T01:39:22.284Z,23.20
2023-03-06T01:41:49.431Z,23.20
2023-03-06T01:44:16.540Z,23.20
2023-03-06T01:46:45.186Z,23.20
2023-03-06T01:49:30.490Z,22.90
2023-03-06T01:52:10.311Z,22.70
2023-03-06T01:54:54.971Z,22.40
2023-03-06T01:57:26.148Z,22.30
2023-03-06T02:00:02.057Z,22.50
2023-03-06T02:02:29.623Z,22.70
2023-03-06T02:04:57.647Z,22.70
2023-03-06T02:07:25.711Z,22.70
2023-03-06T02:09:52.745Z,22.50
2023-03-06T02:12:21.816Z,22.40
2023-03-06T02:14:49.634Z,22.40
2023-03-06T02:17:19.821Z,22.50
2023-03-06T02:20:23.830Z,22.30
2023-03-06T02:23:10.744Z,22.20
2023-03-06T02:25:40.352Z,21.90
2023-03-06T02:28:10.138Z,22.30
2023-03-06T02:30:38.060Z,22.50
2023-03-06T02:33:05.937Z,22.60
2023-03-06T02:35:38.513Z,23.10
2023-03-06T02:38:10.733Z,23.40
2023-03-06T02:40:37.849Z,24.30
2023-03-06T02:43:05.038Z,24.90
2023-03-06T02:45:39.668Z,25.60
2023-03-06T02:48:07.164Z,25.90
2023-03-06T02:50:34.291Z,26.50
2023-03-06T02:53:01.459Z,27.00
2023-03-06T02:55:28.447Z,27.30
2023-03-06T02:57:55.478Z,27.20
2023-03-06T03:00:22.686Z,27.50
2023-03-06T03:02:49.742Z,27.80
2023-03-06T03:05:16.958Z,28.00
2023-03-06T03:07:44.401Z,27.70
2023-03-06T03:10:12.693Z,27.20
2023-03-06T03:12:39.831Z,27.10
2023-03-06T03:15:07.566Z,27.30
2023-03-06T03:17:39.140Z,27.50
2023-03-06T03:20:09.550Z,27.90
2023-03-06T03:22:36.939Z,27.90
2023-03-06T03:25:04.496Z,28.10
2023-03-06T03:27:31.648Z,28.00
2023-03-06T03:29:59.336Z,28.20
2023-03-06T03:32:26.878Z,28.30
2023-03-06T03:34:56.081Z,28.40
2023-03-06T03:37:23.337Z,28.50
2023-03-06T03:39:50.368Z,28.50
2023-03-06T03:42:17.475Z,28.50
2023-03-06T03:44:44.619Z,28.60
2023-03-06T03:47:11.680Z,28.30
2023-03-06T03:49:39.723Z,27.80
2023-03-06T03:52:06.799Z,27.40
2023-03-06T03:54:33.928Z,26.80
2023-03-06T03:57:01.181Z,26.80
2023-03-06T03:59:28.391Z,26.50
2023-03-06T04:01:56.128Z,26.20
2023-03-06T04:04:23.500Z,25.60
2023-03-06T04:06:50.597Z,25.20
2023-03-06T04:09:17.615Z,25.10
2023-03-06T04:11:44.715Z,25.20
2023-03-06T04:14:11.905Z,25.10
2023-03-06T04:16:38.904Z,25.30
2023-03-06T04:19:05.938Z,26.00
2023-03-06T04:21:33.087Z,26.70
2023-03-06T04:24:00.151Z,27.30
2023-03-06T04:26:27.158Z,27.60
2023-03-06T04:28:56.428Z,27.70
2023-03-06T04:31:23.541Z,27.90
2023-03-06T04:33:50.575Z,28.10
2023-03-06T04:36:27.244Z,28.30
2023-03-06T04:38:54.363Z,28.40
2023-03-06T04:41:22.035Z,28.40
2023-03-06T04:43:49.410Z,27.90
2023-03-06T04:46:16.996Z,25.90
2023-03-06T04:48:44.563Z,25.70
2023-03-06T04:51:15.477Z,25.10
2023-03-06T04:53:42.591Z,24.40
2023-03-06T04:56:09.793Z,24.00
2023-03-06T04:58:37.420Z,24.10
2023-03-06T05:01:04.582Z,23.40
2023-03-06T05:03:31.846Z,23.40
2023-03-06T05:05:58.992Z,24.00
2023-03-06T05:08:26.100Z,24.10
2023-03-06T05:11:01.320Z,24.40
2023-03-06T05:13:28.918Z,24.50
2023-03-06T05:16:01.231Z,24.70
2023-03-06T05:18:28.321Z,24.80
2023-03-06T05:20:59.533Z,24.10
2023-03-06T05:23:31.257Z,23.30
2023-03-06T05:25:59.040Z,23.10
2023-03-06T05:28:27.169Z,22.90
2023-03-06T05:30:54.257Z,22.60
2023-03-06T05:33:21.332Z,22.40
2023-03-06T05:35:49.340Z,22.30
2023-03-06T05:38:17.123Z,22.60
2023-03-06T05:40:45.018Z,23.40
2023-03-06T05:43:12.728Z,23.60
2023-03-06T05:45:40.721Z,24.00
2023-03-06T05:48:08.256Z,24.50
2023-03-06T05:50:35.430Z,24.70
2023-03-06T05:53:03.063Z,24.40
2023-03-06T05:55:30.228Z,24.10
2023-03-06T05:57:57.626Z,23.80
2023-03-06T06:00:26.196Z,23.80
2023-03-06T06:02:53.282Z,23.60
2023-03-06T06:05:20.678Z,23.40
2023-03-06T06:07:47.957Z,24.10
2023-03-06T06:10:15.403Z,24.00
2023-03-06T06:12:42.534Z,23.90
2023-03-06T06:15:10.394Z,23.80
2023-03-06T06:17:37.500Z,24.00
2023-03-06T06:20:06.147Z,23.50
2023-03-06T06:22:37.974Z,23.00
2023-03-06T06:25:06.497Z,22.90
2023-03-06T06:27:33.606Z,23.40
2023-03-06T06:30:00.722Z,23.60
2023-03-06T06:32:27.844Z,24.30
2023-03-06T06:34:55.101Z,24.60
2023-03-06T06:37:22.367Z,24.50
2023-03-06T06:39:49.423Z,24.50
2023-03-06T06:42:38.990Z,24.70
2023-03-06T06:45:05.453Z,24.60
2023-03-06T06:47:34.369Z,24.20
2023-03-06T06:50:01.582Z,23.80
2023-03-06T06:52:28.671Z,24.00
2023-03-06T06:54:55.883Z,24.20
2023-03-06T06:57:23.142Z,24.20
2023-03-06T06:59:52.427Z,24.60
2023-03-06T07:02:22.523Z,24.40
2023-03-06T07:05:03.088Z,24.70
2023-03-06T07:07:36.336Z,24.50
2023-03-06T07:10:07.586Z,25.20
2023-03-06T07:12:35.391Z,24.50
2023-03-06T07:15:03.158Z,24.30
2023-03-06T07:17:30.248Z,24.20
2023-03-06T07:19:57.391Z,24.20
2023-03-06T07:22:24.666Z,23.70
2023-03-06T07:24:51.927Z,23.30
2023-03-06T07:27:19.001Z,24.00
2023-03-06T07:29:46.255Z,23.70
2023-03-06T07:32:13.364Z,23.50
2023-03-06T07:34:40.645Z,23.60
2023-03-06T07:37:07.825Z,23.50
2023-03-06T07:39:35.289Z,22.90
2023-03-06T07:42:02.368Z,22.80
2023-03-06T07:44:29.605Z,22.90
2023-03-06T07:46:56.726Z,23.00
2023-03-06T07:49:23.821Z,23.10
2023-03-06T07:51:50.944Z,23.70
2023-03-06T07:54:17.985Z,23.70
2023-03-06T07:56:51.499Z,24.30
2023-03-06T07:59:18.926Z,24.50
2023-03-06T08:01:46.037Z,25.20
2023-03-06T08:04:13.206Z,24.80
2023-03-06T08:06:40.314Z,25.20
2023-03-06T08:09:08.140Z,25.60
2023-03-06T08:11:35.344Z,25.90
2023-03-06T08:14:02.577Z,26.60
2023-03-06T08:16:30.676Z,27.50
2023-03-06T08:18:58.550Z,27.80
2023-03-06T08:21:28.295Z,27.70
2023-03-06T08:23:55.678Z,27.50
2023-03-06T08:26:25.878Z,27.10
2023-03-06T08:28:54.134Z,26.40
2023-03-06T08:31:34.029Z,25.90
2023-03-06T08:34:04.546Z,26.20
2023-03-06T08:36:31.818Z,26.30
2023-03-06T08:38:59.437Z,26.40
2023-03-06T08:41:27.251Z,26.30
2023-03-06T08:43:54.588Z,26.30
2023-03-06T08:46:24.790Z,25.40
2023-03-06T08:48:52.221Z,25.50
2023-03-06T08:51:20.302Z,26.30
2023-03-06T08:53:47.922Z,26.60
2023-03-06T08:56:25.354Z,27.00
2023-03-06T08:58:53.087Z,26.90
2023-03-06T09:01:23.564Z,26.20
2023-03-06T09:03:51.041Z,26.20
2023-03-06T09:06:18.139Z,25.80
2023-03-06T09:08:45.170Z,25.20
2023-03-06T09:11:14.474Z,26.80
2023-03-06T09:13:42.673Z,28.00
2023-03-06T09:16:11.437Z,28.40
2023-03-06T09:18:38.541Z,28.40
2023-03-06T09:21:06.356Z,28.10
2023-03-06T09:23:34.151Z,28.20
2023-03-06T09:26:02.180Z,28.20
2023-03-06T09:28:29.615Z,27.50
2023-03-06T09:30:56.713Z,28.50
2023-03-06T09:33:24.312Z,29.10
2023-03-06T09:35:54.679Z,30.30
2023-03-06T09:38:24.985Z,30.40
2023-03-06T09:40:58.303Z,29.90
2023-03-06T09:43:47.214Z,28.90
2023-03-06T09:46:57.405Z,27.80
2023-03-06T09:49:48.903Z,28.50
2023-03-06T09:52:57.490Z,29.40
2023-03-06T09:55:32.463Z,30.70
2023-03-06T09:58:11.333Z,31.20
2023-03-06T10:00:43.374Z,30.70
2023-03-06T10:03:38.791Z,31.00
2023-03-06T10:06:18.520Z,31.50
2023-03-06T10:09:03.946Z,30.00
2023-03-06T10:11:43.183Z,29.30
2023-03-06T10:14:16.057Z,30.10
2023-03-06T10:16:43.222Z,31.30
2023-03-06T10:19:19.183Z,31.50
2023-03-06T10:22:22.860Z,31.10
2023-03-06T10:25:20.009Z,30.60
2023-03-06T10:28:16.279Z,30.40
2023-03-06T10:31:16.749Z,29.30
2023-03-06T10:33:51.543Z,30.00
2023-03-06T10:36:20.726Z,29.90
2023-03-06T10:38:49.105Z,28.80
2023-03-06T10:41:21.895Z,27.60
2023-03-06T10:44:01.108Z,27.80
2023-03-06T10:46:36.542Z,28.80
2023-03-06T10:49:25.301Z,29.80
2023-03-06T10:52:22.368Z,30.30
2023-03-06T10:54:49.466Z,30.00
2023-03-06T10:57:25.475Z,29.60
2023-03-06T10:59:55.838Z,29.00
2023-03-06T11:02:33.156Z,28.80
2023-03-06T11:05:01.620Z,29.00
2023-03-06T11:07:34.136Z,28.00
2023-03-06T11:10:23.418Z,26.50
2023-03-06T11:13:22.362Z,25.40
2023-03-06T11:15:57.048Z,24.90
2023-03-06T11:18:57.282Z,24.30
2023-03-06T11:21:31.832Z,25.30
2023-03-06T11:24:07.691Z,25.70
2023-03-06T11:26:41.158Z,26.00
2023-03-06T11:29:38.467Z,26.00
2023-03-06T11:32:14.766Z,27.30
2023-03-06T11:34:52.397Z,28.40
2023-03-06T11:37:37.642Z,28.80
2023-03-06T11:40:13.482Z,28.80
2023-03-06T11:43:17.763Z,29.10
2023-03-06T11:46:05.129Z,30.20
2023-03-06T11:48:39.328Z,31.30
2023-03-06T11:51:19.094Z,31.00
2023-03-06T11:53:50.017Z,29.40
2023-03-06T11:56:22.268Z,28.30
2023-03-06T11:59:07.806Z,27.70
2023-03-06T12:01:53.564Z,28.40
2023-03-06T12:04:44.929Z,28.70
2023-03-06T12:07:11.820Z,26.70
2023-03-06T12:10:19.081Z,25.80
2023-03-06T12:12:58.213Z,26.00
2023-03-06T12:15:46.930Z,26.60
2023-03-06T12:18:32.479Z,28.10
2023-03-06T12:21:18.055Z,27.80
2023-03-06T12:24:11.070Z,27.10
2023-03-06T12:26:57.522Z,28.40
2023-03-06T12:30:09.542Z,28.90
2023-03-06T12:33:05.170Z,29.90
2023-03-06T12:36:12.988Z,30.40
2023-03-06T12:38:48.801Z,31.00
2023-03-06T12:41:33.578Z,30.70
2023-03-06T12:44:18.415Z,31.00
2023-03-06T12:47:05.249Z,31.50
2023-03-06T12:49:38.855Z,31.70
2023-03-06T12:52:08.187Z,30.80
2023-03-06T12:54:41.198Z,30.50
2023-03-06T12:57:09.683Z,29.20
2023-03-06T12:59:44.692Z,29.50
2023-03-06T13:02:40.900Z,29.50
2023-03-06T13:05:34.461Z,30.20
2023-03-06T13:08:31.789Z,30.60
2023-03-06T13:11:11.409Z,30.40
2023-03-06T13:13:47.899Z,30.80
2023-03-06T13:16:31.775Z,30.70
2023-03-06T13:19:04.774Z,29.90
2023-03-06T13:21:56.545Z,30.10
2023-03-06T13:24:28.019Z,29.60
2023-03-06T13:26:59.616Z,29.10
2023-03-06T13:29:38.661Z,29.60
2023-03-06T13:32:14.663Z,29.80
2023-03-06T13:34:48.690Z,29.90
2023-03-06T13:37:23.179Z,30.00
2023-03-06T13:39:55.949Z,30.40
2023-03-06T13:42:35.185Z,31.00
2023-03-06T13:45:38.893Z,30.70
2023-03-06T13:48:41.615Z,30.20
2023-03-06T13:51:31.984Z,29.80
2023-03-06T13:54:36.395Z,29.20
2023-03-06T13:57:06.428Z,29.90
2023-03-06T14:00:09.571Z,29.40
2023-03-06T14:03:10.734Z,28.90
2023-03-06T14:05:49.030Z,27.30
2023-03-06T14:08:33.317Z,26.70
2023-03-06T14:11:22.628Z,27.50
2023-03-06T14:13:54.093Z,28.30
2023-03-06T14:16:25.475Z,28.90
2023-03-06T14:18:55.502Z,28.70
2023-03-06T14:21:31.136Z,29.30
2023-03-06T14:24:04.663Z,29.80
2023-03-06T14:26:44.293Z,30.20
2023-03-06T14:29:26.398Z,29.90
2023-03-06T14:32:06.042Z,29.30
2023-03-06T14:34:41.122Z,29.20
2023-03-06T14:37:24.659Z,27.40
2023-03-06T14:39:52.453Z,27.40
2023-03-06T14:42:29.298Z,27.50
2023-03-06T14:45:06.679Z,28.40
2023-03-06T14:47:35.573Z,28.20
2023-03-06T14:50:21.935Z,27.90
2023-03-06T14:53:09.181Z,27.00
2023-03-06T14:55:37.050Z,27.50
2023-03-06T14:58:18.830Z,27.20
2023-03-06T15:00:50.411Z,27.00
2023-03-06T15:03:23.380Z,27.10
2023-03-06T15:05:51.364Z,28.40
2023-03-06T15:08:28.234Z,29.10
2023-03-06T15:11:06.301Z,30.00
2023-03-06T15:13:34.916Z,30.30
2023-03-06T15:16:24.870Z,30.80
2023-03-06T15:19:03.965Z,30.90
2023-03-06T15:21:38.658Z,31.00
2023-03-06T15:24:44.156Z,31.00
2023-03-06T15:27:26.790Z,30.80
2023-03-06T15:29:54.022Z,29.70
2023-03-06T15:32:33.652Z,29.10
2023-03-06T15:35:25.268Z,28.80
2023-03-06T15:37:52.890Z,29.10
2023-03-06T15:40:22.377Z,28.90
2023-03-06T15:42:50.262Z,29.60
2023-03-06T15:45:22.613Z,29.40
2023-03-06T15:47:52.799Z,28.90
2023-03-06T15:50:25.782Z,28.40
2023-03-06T15:52:53.267Z,28.30
2023-03-06T15:55:28.494Z,28.40
2023-03-06T15:58:02.201Z,27.90
2023-03-06T16:00:40.363Z,27.20
2023-03-06T16:03:10.089Z,27.60
2023-03-06T16:05:37.448Z,26.10
2023-03-06T16:08:05.544Z,25.60
2023-03-06T16:10:37.786Z,26.10
2023-03-06T16:13:15.990Z,25.60
2023-03-06T16:15:50.988Z,26.10
2023-03-06T16:18:19.426Z,27.00
2023-03-06T16:20:47.309Z,27.30
2023-03-06T16:23:15.551Z,28.00
2023-03-06T16:25:48.497Z,28.30
2023-03-06T16:28:16.971Z,28.20
2023-03-06T16:30:44.778Z,28.00
2023-03-06T16:33:13.174Z,28.30
2023-03-06T16:35:41.537Z,28.80
2023-03-06T16:38:09.996Z,29.50
2023-03-06T16:40:41.806Z,29.90
2023-03-06T16:43:10.695Z,29.90
2023-03-06T16:45:42.268Z,29.90
2023-03-06T16:48:15.879Z,29.40
2023-03-06T16:50:43.513Z,29.50
2023-03-06T16:53:10.785Z,29.60
2023-03-06T16:55:39.528Z,29.40
2023-03-06T16:58:08.772Z,29.20
2023-03-06T17:00:35.940Z,28.90
2023-03-06T17:03:03.110Z,29.00
2023-03-06T17:05:34.136Z,29.40
2023-03-06T17:08:01.446Z,29.50
2023-03-06T17:10:28.646Z,29.60
2023-03-06T17:12:56.886Z,29.70
2023-03-06T17:15:24.617Z,29.80
2023-03-06T17:17:53.261Z,29.90
2023-03-06T17:20:20.717Z,29.80
2023-03-06T17:22:47.837Z,29.90
2023-03-06T17:25:15.069Z,29.90
2023-03-06T17:27:42.116Z,29.90
2023-03-06T17:30:10.036Z,29.90
2023-03-06T17:32:40.065Z,29.90
2023-03-06T17:35:09.402Z,29.90
2023-03-06T17:37:36.767Z,30.00
2023-03-06T17:40:04.260Z,29.80
2023-03-06T17:42:32.646Z,29.60
2023-03-06T17:44:59.748Z,29.60
2023-03-06T17:47:26.910Z,29.40
2023-03-06T17:49:54.115Z,29.20
2023-03-06T17:52:21.269Z,28.70
2023-03-06T17:54:48.267Z,28.50
2023-03-06T17:57:15.287Z,28.60
2023-03-06T17:59:46.927Z,28.80
2023-03-06T18:02:14.293Z,28.90
2023-03-06T18:04:41.706Z,29.20
2023-03-06T18:07:10.385Z,29.20
2023-03-06T18:09:43.095Z,29.10
2023-03-06T18:12:12.742Z,29.10
2023-03-06T18:14:42.094Z,29.30
2023-03-06T18:17:09.201Z,29.40
2023-03-06T18:19:36.195Z,29.40
2023-03-06T18:22:03.598Z,29.40
2023-03-06T18:24:30.709Z,29.30
2023-03-06T18:26:58.625Z,29.40
2023-03-06T18:29:26.022Z,29.50
2023-03-06T18:31:55.299Z,29.50
2023-03-06T18:34:25.229Z,29.50
2023-03-06T18:36:53.168Z,29.50
2023-03-06T18:39:21.492Z,29.50
2023-03-06T18:41:51.893Z,29.60
2023-03-06T18:44:19.140Z,29.70
2023-03-06T18:46:46.474Z,29.80
2023-03-06T18:49:16.133Z,29.90
2023-03-06T18:51:43.348Z,29.80
2023-03-06T18:54:11.459Z,29.40
2023-03-06T18:56:39.908Z,29.20
2023-03-06T18:59:08.249Z,29.30
2023-03-06T19:01:35.649Z,29.30
2023-03-06T19:04:04.048Z,29.30
2023-03-06T19:06:31.859Z,29.20
2023-03-06T19:08:59.048Z,29.40
2023-03-06T19:11:27.481Z,29.40
2023-03-06T19:13:55.321Z,29.40
2023-03-06T19:16:25.729Z,29.50
2023-03-06T19:18:55.520Z,29.60
2023-03-06T19:21:24.715Z,29.70
2023-03-06T19:23:52.169Z,29.60
2023-03-06T19:26:20.443Z,29.80
2023-03-06T19:28:48.279Z,29.80
2023-03-06T19:31:19.563Z,29.80
2023-03-06T19:33:48.416Z,29.70
2023-03-06T19:36:17.461Z,29.60
2023-03-06T19:38:44.776Z,29.50
2023-03-06T19:41:14.022Z,29.50
2023-03-06T19:43:43.080Z,29.60
2023-03-06T19:46:16.484Z,29.20
2023-03-06T19:48:43.650Z,28.70
2023-03-06T19:51:11.605Z,28.50
2023-03-06T19:53:40.097Z,28.20
2023-03-06T19:56:11.683Z,27.80
2023-03-06T19:58:40.792Z,27.60
2023-03-06T20:01:14.239Z,27.40
2023-03-06T20:03:42.523Z,27.50
2023-03-06T20:06:15.795Z,27.40
2023-03-06T20:08:43.735Z,27.30
2023-03-06T20:11:24.010Z,27.00
2023-03-06T20:13:51.529Z,26.70
2023-03-06T20:16:19.082Z,27.00
2023-03-06T20:18:46.326Z,27.10
2023-03-06T20:21:14.131Z,26.60
2023-03-06T20:23:41.948Z,26.00
2023-03-06T20:26:12.119Z,25.60
2023-03-06T20:28:40.952Z,25.90
2023-03-06T20:31:13.745Z,25.60
2023-03-06T20:33:40.861Z,25.30
2023-03-06T20:36:18.722Z,25.30
2023-03-06T20:38:46.263Z,24.80
2023-03-06T20:41:22.436Z,24.40
2023-03-06T20:43:52.704Z,23.90
2023-03-06T20:46:21.394Z,23.80
2023-03-06T20:48:52.987Z,24.10
2023-03-06T20:51:31.788Z,24.20
2023-03-06T20:54:00.977Z,24.10
2023-03-06T20:56:32.589Z,24.10
2023-03-06T20:59:02.433Z,24.00
2023-03-06T21:01:38.514Z,23.70
2023-03-06T21:04:05.739Z,23.70
2023-03-06T21:06:33.694Z,23.60
2023-03-06T21:09:01.707Z,23.10
2023-03-06T21:11:32.437Z,23.20
2023-03-06T21:14:00.969Z,23.40
2023-03-06T21:16:30.390Z,23.00
2023-03-06T21:18:59.821Z,23.20
2023-03-06T21:21:30.595Z,23.60
2023-03-06T21:23:58.525Z,23.20
2023-03-06T21:26:29.006Z,23.60
2023-03-06T21:29:00.051Z,24.40
2023-03-06T21:31:28.547Z,24.80
2023-03-06T21:33:56.972Z,24.10
2023-03-06T21:36:24.153Z,24.30
2023-03-06T21:38:52.481Z,24.10
2023-03-06T21:41:26.378Z,23.80
2023-03-06T21:44:01.773Z,23.80
2023-03-06T21:46:30.028Z,23.60
2023-03-06T21:48:58.912Z,23.80
2023-03-06T21:51:26.862Z,23.80
2023-03-06T21:53:55.082Z,23.50
2023-03-06T21:56:25.107Z,23.90
2023-03-06T21:58:52.934Z,24.10
2023-03-06T22:01:23.730Z,24.40
2023-03-06T22:03:51.418Z,24.60
2023-03-06T22:06:21.697Z,25.00
2023-03-06T22:08:48.958Z,25.10
2023-03-06T22:11:21.808Z,25.40
2023-03-06T22:13:50.069Z,25.80
2023-03-06T22:16:17.749Z,25.50
2023-03-06T22:18:46.383Z,25.00
2023-03-06T22:21:16.842Z,24.50
2023-03-06T22:23:44.478Z,24.60
2023-03-06T22:26:13.671Z,24.80
2023-03-06T22:28:42.227Z,25.30
2023-03-06T22:31:15.598Z,26.00
2023-03-06T22:33:43.091Z,25.80
2023-03-06T22:36:13.286Z,25.70
2023-03-06T22:38:42.644Z,25.50
2023-03-06T22:41:10.866Z,25.40
2023-03-06T22:43:38.268Z,25.30
2023-03-06T22:46:11.172Z,25.10
2023-03-06T22:48:38.648Z,25.20
2023-03-06T22:51:09.421Z,25.20
2023-03-06T22:53:36.882Z,25.10
2023-03-06T22:56:06.431Z,25.50
2023-03-06T22:58:37.305Z,25.30
2023-03-06T23:01:06.083Z,24.40
2023-03-06T23:03:33.382Z,24.50
2023-03-06T23:06:00.519Z,24.80
2023-03-06T23:08:27.506Z,24.90
2023-03-06T23:10:54.620Z,25.10
2023-03-06T23:13:22.221Z,24.90
2023-03-06T23:15:49.476Z,24.10
2023-03-06T23:18:16.546Z,24.20
2023-03-06T23:20:44.153Z,24.30
2023-03-06T23:23:11.702Z,24.20
2023-03-06T23:25:39.489Z,24.70
2023-03-06T23:28:07.465Z,24.80
2023-03-06T23:30:34.615Z,25.00
2023-03-06T23:33:01.621Z,25.60
2023-03-06T23:35:28.924Z,26.40
2023-03-06T23:37:56.525Z,26.80
2023-03-06T23:40:23.788Z,26.40
2023-03-06T23:42:50.862Z,26.10
2023-03-06T23:45:18.543Z,25.80
2023-03-06T23:47:45.780Z,25.00
2023-03-06T23:50:13.314Z,24.80
2023-03-06T23:52:41.003Z,24.70
2023-03-06T23:55:09.006Z,24.20
2023-03-06T23:57:36.274Z,24.30
